Terminal Aerodrome Forecast
Issued by NWS

Home | Current Version | Previous Version | Text Only | Print | Product List | Glossary On
Versions: 1 2 3 4 5 6 7 8 9 10 11 12 13 14 15 16 17
000
FTUS46 KSGX 031134
TAFCRQ
TAF
KCRQ 031134Z 0312/0412 07006KT P6SM SCT040 SCT090
     FM032000 26008KT P6SM SCT030 SCT040
     FM040200 VRB04KT P6SM SCT025
      TEMPO 0408/0412 BKN020=

USA.gov is the U.S. government's official web portal to all federal, state and local government web resources and services.